createdAt,value
2023-05-28T00:00:57.441Z,74.44458
2023-05-28T00:02:07.130Z,74.54834
2023-05-28T00:03:15.806Z,74.645996
2023-05-28T00:04:24.445Z,74.645996
2023-05-28T00:05:33.094Z,74.951172
2023-05-28T00:06:41.797Z,74.951172
2023-05-28T00:07:51.494Z,75.561523
2023-05-28T00:08:59.158Z,75.360107
2023-05-28T00:10:08.860Z,75.457764
2023-05-28T00:11:18.497Z,75.457764
2023-05-28T00:12:27.188Z,75.665283
2023-05-28T00:13:35.885Z,75.158691
2023-05-28T00:14:44.561Z,75.256348
2023-05-28T00:15:54.399Z,75.158691
2023-05-28T00:17:03.899Z,75.256348
2023-05-28T00:18:11.647Z,74.853516
2023-05-28T00:19:20.243Z,74.853516
2023-05-28T00:20:29.975Z,75.054932
2023-05-28T00:21:38.571Z,75.054932
2023-05-28T00:22:48.240Z,75.189209
2023-05-28T00:23:57.920Z,74.987793
2023-05-28T00:25:06.569Z,74.987793
2023-05-28T00:26:16.300Z,75.598145
2023-05-28T00:27:24.924Z,75.396729
2023-05-28T00:28:34.611Z,75.22583
2023-05-28T00:29:44.272Z,75.531006
2023-05-28T00:30:52.993Z,75.634766
2023-05-28T00:32:01.716Z,75.939941
2023-05-28T00:33:10.301Z,76.550293
2023-05-28T00:34:19.180Z,76.037598
2023-05-28T00:35:28.858Z,76.037598
2023-05-28T00:36:36.517Z,76.342773
2023-05-28T00:37:45.174Z,75.939941
2023-05-28T00:38:54.853Z,76.037598
2023-05-28T00:40:03.530Z,76.141357
2023-05-28T00:41:12.230Z,75.671387
2023-05-28T00:42:21.905Z,76.379395
2023-05-28T00:43:31.569Z,76.68457
2023-05-28T00:44:40.241Z,76.379395
2023-05-28T00:45:49.008Z,76.177979
2023-05-28T00:46:57.605Z,76.89209
2023-05-28T00:48:07.284Z,76.78833
2023-05-28T00:49:15.903Z,77.026367
2023-05-28T00:50:24.553Z,77.026367
2023-05-28T00:51:33.212Z,77.026367
2023-05-28T00:52:40.866Z,76.824951
2023-05-28T00:53:50.526Z,77.062988
2023-05-28T00:54:59.169Z,77.368164
2023-05-28T00:56:06.846Z,77.56958
2023-05-28T00:57:16.505Z,77.7771
2023-05-28T00:58:26.187Z,78.387451
2023-05-28T00:59:35.829Z,78.491211
2023-05-28T01:00:45.522Z,78.796387
2023-05-28T01:01:54.190Z,79.199219
2023-05-28T01:03:04.047Z,78.588867
2023-05-28T01:04:12.587Z,78.491211
2023-05-28T01:05:22.201Z,78.387451
2023-05-28T01:06:30.857Z,78.082275
2023-05-28T01:07:39.552Z,78.186035
2023-05-28T01:08:48.181Z,78.491211
2023-05-28T01:09:56.853Z,78.796387
2023-05-28T01:11:06.548Z,79.80957
2023-05-28T01:12:16.231Z,80.01709
2023-05-28T01:13:24.901Z,79.608154
2023-05-28T01:14:34.612Z,80.114746
2023-05-28T01:15:44.280Z,79.91333
2023-05-28T01:16:53.079Z,79.711914
2023-05-28T01:18:02.772Z,79.504395
2023-05-28T01:19:12.332Z,79.199219
2023-05-28T01:20:21.056Z,79.138184
2023-05-28T01:21:30.752Z,79.23584
2023-05-28T01:22:39.382Z,79.541016
2023-05-28T01:23:49.140Z,80.053711
2023-05-28T01:24:57.804Z,80.255127
2023-05-28T01:26:05.448Z,80.157471
2023-05-28T01:27:15.132Z,79.949951
2023-05-28T01:28:23.800Z,79.644775
2023-05-28T01:29:32.508Z,79.852295
2023-05-28T01:30:42.185Z,79.644775
2023-05-28T01:31:50.798Z,79.748535
2023-05-28T01:33:00.486Z,79.541016
2023-05-28T01:34:08.114Z,79.748535
2023-05-28T01:35:15.794Z,79.644775
2023-05-28T01:36:26.443Z,80.053711
2023-05-28T01:37:36.105Z,80.664062
2023-05-28T01:38:44.747Z,80.969238
2023-05-28T01:39:54.487Z,81.481934
2023-05-28T01:41:03.137Z,81.57959
2023-05-28T01:42:12.820Z,81.787109
2023-05-28T01:43:23.494Z,81.072998
2023-05-28T01:44:31.168Z,80.462646
2023-05-28T01:45:40.893Z,80.462646
2023-05-28T01:46:50.665Z,79.852295
2023-05-28T01:47:59.221Z,79.852295
2023-05-28T01:49:07.826Z,79.852295
2023-05-28T01:50:17.494Z,79.681396
2023-05-28T01:51:27.233Z,80.194092
2023-05-28T01:52:35.931Z,80.291748
2023-05-28T01:53:43.589Z,80.700684
2023-05-28T01:54:53.266Z,80.596924
2023-05-28T01:56:01.945Z,80.291748
2023-05-28T01:57:10.620Z,80.194092
2023-05-28T01:58:19.315Z,80.090332
2023-05-28T01:59:27.974Z,79.986572
2023-05-28T02:00:37.643Z,79.888916
2023-05-28T02:01:45.364Z,80.194092
2023-05-28T02:02:55.112Z,80.194092
2023-05-28T02:04:04.717Z,80.194092
2023-05-28T02:05:13.408Z,80.090332
2023-05-28T02:06:22.055Z,79.785156
2023-05-28T02:07:30.725Z,79.681396
2023-05-28T02:08:39.412Z,79.925537
2023-05-28T02:09:49.063Z,79.620361
2023-05-28T02:10:57.753Z,80.023193
2023-05-28T02:12:06.486Z,80.371094
2023-05-28T02:13:16.157Z,80.065918
2023-05-28T02:14:25.858Z,80.67627
2023-05-28T02:15:35.568Z,80.877686
2023-05-28T02:16:45.265Z,81.634521
2023-05-28T02:17:54.922Z,81.530762
2023-05-28T02:19:04.584Z,81.530762
2023-05-28T02:20:14.278Z,81.530762
2023-05-28T02:21:21.898Z,81.634521
2023-05-28T02:22:30.563Z,81.939697
2023-05-28T02:23:40.260Z,82.037354
2023-05-28T02:24:48.941Z,82.958984
2023-05-28T02:25:57.678Z,84.179688
2023-05-28T02:27:06.316Z,84.387207
2023-05-28T02:28:15.970Z,84.588623
2023-05-28T02:29:23.675Z,84.448242
2023-05-28T02:30:31.325Z,83.630371
2023-05-28T02:31:41.023Z,83.123779
2023-05-28T02:32:49.742Z,83.02002
2023-05-28T02:33:58.326Z,82.513428
2023-05-28T02:35:07.032Z,82.409668
2023-05-28T02:36:16.721Z,83.123779
2023-05-28T02:37:26.393Z,82.513428
2023-05-28T02:38:34.048Z,82.409668
2023-05-28T02:39:41.695Z,82.141113
2023-05-28T02:40:51.384Z,81.835938
2023-05-28T02:42:00.070Z,81.835938
2023-05-28T02:43:08.754Z,81.835938
2023-05-28T02:44:18.457Z,82.244873
2023-05-28T02:45:27.177Z,82.348633
2023-05-28T02:46:36.881Z,82.653809
2023-05-28T02:47:45.577Z,82.751465
2023-05-28T02:48:53.165Z,82.348633
2023-05-28T02:50:02.837Z,82.080078
2023-05-28T02:51:11.534Z,81.976318
2023-05-28T02:52:20.172Z,82.080078
2023-05-28T02:53:29.857Z,82.177734
2023-05-28T02:54:39.543Z,82.281494
2023-05-28T02:55:48.229Z,82.489014
2023-05-28T02:56:56.905Z,82.421875
2023-05-28T02:58:06.570Z,83.135986
2023-05-28T02:59:15.396Z,83.343506
2023-05-28T03:00:23.043Z,83.544922
2023-05-28T03:01:32.746Z,83.03833
2023-05-28T03:02:42.471Z,82.93457
2023-05-28T03:03:51.082Z,82.830811
2023-05-28T03:04:59.752Z,82.727051
2023-05-28T03:06:09.404Z,82.830811
2023-05-28T03:07:19.137Z,84.667969
2023-05-28T03:08:27.763Z,85.894775
2023-05-28T03:09:36.458Z,85.894775
2023-05-28T03:10:46.162Z,85.5896
2023-05-28T03:11:54.900Z,85.345459
2023-05-28T03:13:05.169Z,84.832764
2023-05-28T03:14:14.216Z,83.709717
2023-05-28T03:15:22.886Z,82.995605
2023-05-28T03:16:32.538Z,82.629395
2023-05-28T03:17:41.209Z,83.343506
2023-05-28T03:18:48.858Z,83.441162
2023-05-28T03:19:58.522Z,83.544922
2023-05-28T03:21:08.157Z,83.441162
2023-05-28T03:22:16.815Z,83.441162
2023-05-28T03:23:26.515Z,83.648682
2023-05-28T03:24:35.145Z,83.544922
2023-05-28T03:25:44.790Z,83.850098
2023-05-28T03:26:53.476Z,84.161377
2023-05-28T03:28:02.152Z,84.259033
2023-05-28T03:29:11.833Z,84.161377
2023-05-28T03:30:20.515Z,85.180664
2023-05-28T03:31:31.222Z,85.38208
2023-05-28T03:32:39.882Z,85.449219
2023-05-28T03:33:49.529Z,84.936523
2023-05-28T03:34:59.193Z,84.735107
2023-05-28T03:36:07.920Z,84.631348
2023-05-28T03:37:16.534Z,84.423828
2023-05-28T03:38:26.192Z,84.179688
2023-05-28T03:39:35.941Z,84.179688
2023-05-28T03:40:44.563Z,83.978271
2023-05-28T03:41:53.304Z,83.776855
2023-05-28T03:43:01.998Z,83.776855
2023-05-28T03:44:11.655Z,83.776855
2023-05-28T03:45:19.332Z,83.776855
2023-05-28T03:46:27.001Z,83.874512
2023-05-28T03:47:36.726Z,83.569336
2023-05-28T03:48:45.290Z,83.465576
2023-05-28T03:49:54.944Z,83.1604
2023-05-28T03:51:03.659Z,82.958984
2023-05-28T03:52:13.331Z,82.348633
2023-05-28T03:53:22.997Z,82.244873
2023-05-28T03:54:31.626Z,84.796143
2023-05-28T03:55:41.323Z,85.162354
2023-05-28T03:56:50.953Z,86.083984
2023-05-28T03:57:59.667Z,85.980225
2023-05-28T03:59:08.312Z,84.918213
2023-05-28T04:00:17.967Z,83.795166
2023-05-28T04:01:26.639Z,83.288574
2023-05-28T04:02:36.375Z,83.392334
2023-05-28T04:03:45.141Z,83.288574
2023-05-28T04:04:53.729Z,83.59375
2023-05-28T04:06:03.356Z,82.269287
2023-05-28T04:07:12.043Z,82.775879
2023-05-28T04:08:20.695Z,82.574463
2023-05-28T04:09:29.356Z,82.330322
2023-05-28T04:10:38.068Z,81.68335
2023-05-28T04:11:47.753Z,81.072998
2023-05-28T04:12:56.404Z,80.01709
2023-05-28T04:14:05.106Z,79.91333
2023-05-28T04:15:14.791Z,79.876709
2023-05-28T04:16:23.491Z,80.181885
2023-05-28T04:17:33.169Z,79.80957
2023-05-28T04:18:41.855Z,80.114746
2023-05-28T04:19:50.524Z,80.419922
2023-05-28T04:21:00.179Z,80.725098
2023-05-28T04:22:08.821Z,79.711914
2023-05-28T04:23:17.515Z,79.711914
2023-05-28T04:24:27.184Z,79.91333
2023-05-28T04:25:36.856Z,80.255127
2023-05-28T04:26:45.527Z,80.560303
2023-05-28T04:27:55.202Z,80.419922
2023-05-28T04:29:04.830Z,80.419922
2023-05-28T04:30:14.513Z,80.078125
2023-05-28T04:31:23.180Z,79.162598
2023-05-28T04:32:30.875Z,79.266357
2023-05-28T04:33:40.473Z,79.675293
2023-05-28T04:34:49.145Z,79.022217
2023-05-28T04:35:57.801Z,78.210449
2023-05-28T04:37:06.452Z,77.807617
2023-05-28T04:38:16.136Z,77.905273
2023-05-28T04:39:25.771Z,77.362061
2023-05-28T04:40:34.447Z,77.362061
2023-05-28T04:41:43.102Z,77.160645
2023-05-28T04:42:52.756Z,77.563477
2023-05-28T04:44:01.425Z,76.611328
2023-05-28T04:45:11.088Z,76.611328
2023-05-28T04:46:19.757Z,77.124023
2023-05-28T04:47:29.489Z,77.124023
2023-05-28T04:48:39.101Z,76.715088
2023-05-28T04:49:47.775Z,76.409912
2023-05-28T04:50:56.428Z,75.970459
2023-05-28T04:52:06.095Z,76.275635
2023-05-28T04:53:14.739Z,76.068115
2023-05-28T04:54:24.408Z,75.970459
2023-05-28T04:55:34.083Z,75.524902
2023-05-28T04:56:42.767Z,75.427246
2023-05-28T04:57:52.474Z,74.920654
2023-05-28T04:59:02.137Z,75.219727
2023-05-28T05:00:11.937Z,74.920654
2023-05-28T05:01:20.632Z,74.615479
2023-05-28T05:02:28.265Z,74.682617
2023-05-28T05:03:37.913Z,74.578857
2023-05-28T05:04:46.535Z,74.072266
2023-05-28T05:05:56.435Z,73.66333
2023-05-28T05:07:05.877Z,73.632812
2023-05-28T05:08:13.553Z,73.327637
2023-05-28T05:09:23.227Z,72.918701
2023-05-28T05:10:30.870Z,72.821045
2023-05-28T05:11:39.570Z,73.022461
2023-05-28T05:12:49.226Z,72.412109
2023-05-28T05:13:57.910Z,72.613525
2023-05-28T05:15:06.546Z,72.277832
2023-05-28T05:16:16.290Z,72.381592
2023-05-28T05:17:23.833Z,72.784424
2023-05-28T05:18:33.532Z,72.381592
2023-05-28T05:19:42.225Z,71.972656
2023-05-28T05:20:50.975Z,70.959473
2023-05-28T05:22:00.545Z,72.039795
2023-05-28T05:23:09.261Z,71.130371
2023-05-28T05:24:17.923Z,71.435547
2023-05-28T05:25:27.588Z,72.009277
2023-05-28T05:26:37.249Z,71.228027
2023-05-28T05:27:46.914Z,70.654297
2023-05-28T05:28:55.626Z,71.66748
2023-05-28T05:30:03.279Z,71.838379
2023-05-28T05:31:13.108Z,71.704102
2023-05-28T05:32:23.513Z,70.690918
2023-05-28T05:33:30.374Z,71.09375
2023-05-28T05:34:39.071Z,70.489502
2023-05-28T05:35:47.705Z,70.996094
2023-05-28T05:36:57.354Z,70.654297
2023-05-28T05:38:05.003Z,70.758057
2023-05-28T05:39:13.710Z,70.654297
2023-05-28T05:40:23.379Z,70.758057
2023-05-28T05:41:32.075Z,70.318604
2023-05-28T05:42:40.750Z,70.117188
2023-05-28T05:43:48.404Z,70.184326
2023-05-28T05:44:58.067Z,69.274902
2023-05-28T05:46:07.782Z,69.073486
2023-05-28T05:47:15.408Z,69.073486
2023-05-28T05:48:25.075Z,69.177246
2023-05-28T05:49:34.728Z,68.969727
2023-05-28T05:50:44.405Z,68.365479
2023-05-28T05:51:53.061Z,68.566895
2023-05-28T05:53:02.018Z,68.261719
2023-05-28T05:54:10.674Z,68.469238
2023-05-28T05:55:20.332Z,68.365479
2023-05-28T05:56:29.019Z,68.261719
2023-05-28T05:57:36.662Z,68.536377
2023-05-28T05:58:45.301Z,68.334961
2023-05-28T05:59:53.968Z,68.096924
2023-05-28T06:01:02.612Z,68.505859
2023-05-28T06:02:11.353Z,67.999268
2023-05-28T06:03:21.101Z,67.999268
2023-05-28T06:04:30.804Z,68.200684
2023-05-28T06:05:40.384Z,68.096924
2023-05-28T06:06:50.064Z,67.694092
2023-05-28T06:07:59.838Z,67.1875
2023-05-28T06:09:08.536Z,67.462158
2023-05-28T06:10:18.199Z,67.76123
2023-05-28T06:11:27.924Z,67.663574
2023-05-28T06:12:36.596Z,66.85791
2023-05-28T06:13:45.248Z,66.723633
2023-05-28T06:14:53.936Z,67.022705
2023-05-28T06:16:01.614Z,67.022705
2023-05-28T06:17:11.302Z,67.297363
2023-05-28T06:18:19.918Z,67.095947
2023-05-28T06:19:28.599Z,67.095947
2023-05-28T06:20:37.302Z,66.693115
2023-05-28T06:21:45.918Z,66.491699
2023-05-28T06:22:56.573Z,66.656494
2023-05-28T06:24:04.780Z,66.156006
2023-05-28T06:25:13.450Z,66.52832
2023-05-28T06:26:23.188Z,66.223145
2023-05-28T06:27:31.861Z,65.118408
2023-05-28T06:28:40.570Z,65.319824
2023-05-28T06:29:49.230Z,65.185547
2023-05-28T06:30:57.975Z,64.685059
2023-05-28T06:32:07.557Z,65.216064
2023-05-28T06:33:16.219Z,65.087891
2023-05-28T06:34:23.898Z,64.782715
2023-05-28T06:35:33.570Z,64.581299
2023-05-28T06:36:42.261Z,64.752197
2023-05-28T06:37:50.896Z,64.147949
2023-05-28T06:38:59.563Z,64.147949
2023-05-28T06:40:08.244Z,64.251709
2023-05-28T06:41:17.956Z,63.916016
2023-05-28T06:42:25.616Z,63.513184
2023-05-28T06:43:33.320Z,63.311768
2023-05-28T06:44:43.009Z,62.982178
2023-05-28T06:45:52.779Z,62.982178
2023-05-28T06:47:01.520Z,63.183594
2023-05-28T06:48:10.073Z,63.049316
2023-05-28T06:49:19.664Z,62.017822
2023-05-28T06:50:29.396Z,63.018799
2023-05-28T06:51:39.042Z,61.712646
2023-05-28T06:52:48.744Z,62.487793
2023-05-28T06:53:57.366Z,61.987305
2023-05-28T06:55:05.021Z,60.27832
2023-05-28T06:56:14.742Z,60.778809
2023-05-28T06:57:23.358Z,60.852051
2023-05-28T06:58:32.020Z,60.821533
2023-05-28T06:59:40.686Z,60.119629
2023-05-28T07:00:49.437Z,60.192871
2023-05-28T07:01:58.092Z,59.692383
2023-05-28T07:03:06.837Z,59.564209
2023-05-28T07:04:15.491Z,59.130859
2023-05-28T07:05:25.157Z,58.831787
2023-05-28T07:06:33.774Z,58.428955
2023-05-28T07:07:42.463Z,58.428955
2023-05-28T07:08:52.258Z,57.733154
2023-05-28T07:10:00.886Z,58.105469
2023-05-28T07:11:10.554Z,58.276367
2023-05-28T07:12:19.286Z,57.574463
2023-05-28T07:13:27.959Z,56.072998
2023-05-28T07:14:37.636Z,56.072998
2023-05-28T07:15:46.319Z,57.373047
2023-05-28T07:16:54.975Z,56.744385
2023-05-28T07:18:03.697Z,55.743408
2023-05-28T07:19:13.361Z,55.81665
2023-05-28T07:20:23.122Z,56.121826
2023-05-28T07:21:32.703Z,54.919434
2023-05-28T07:22:40.395Z,54.620361
2023-05-28T07:23:50.165Z,55.24292
2023-05-28T07:24:59.829Z,56.121826
2023-05-28T07:26:09.476Z,55.81665
2023-05-28T07:27:19.149Z,55.090332
2023-05-28T07:28:27.794Z,54.193115
2023-05-28T07:29:37.472Z,53.991699
2023-05-28T07:30:45.118Z,53.967285
2023-05-28T07:31:52.892Z,54.064941
2023-05-28T07:33:02.616Z,53.570557
2023-05-28T07:34:11.229Z,54.144287
2023-05-28T07:35:19.948Z,54.016113
2023-05-28T07:36:28.642Z,53.491211
2023-05-28T07:37:37.317Z,52.966309
2023-05-28T07:38:47.037Z,52.46582
2023-05-28T07:39:55.686Z,51.947021
2023-05-28T07:41:05.376Z,51.568604
2023-05-28T07:42:15.056Z,52.368164
2023-05-28T07:43:23.822Z,52.270508
2023-05-28T07:44:33.474Z,52.166748
2023-05-28T07:45:43.216Z,52.246094
2023-05-28T07:46:51.795Z,51.916504
2023-05-28T07:48:01.521Z,51.696777
2023-05-28T07:49:10.290Z,50.799561
2023-05-28T07:50:18.020Z,50.897217
2023-05-28T07:51:27.679Z,50.799561
2023-05-28T07:52:36.399Z,51.000977
2023-05-28T07:53:45.055Z,50.201416
2023-05-28T07:54:54.712Z,50.57373
2023-05-28T07:56:03.364Z,50.378418
2023-05-28T07:57:13.129Z,50.152588
2023-05-28T07:58:21.798Z,50.45166
2023-05-28T07:59:31.507Z,50.030518
2023-05-28T08:00:41.194Z,49.633789
2023-05-28T08:01:50.866Z,50.128174
2023-05-28T08:02:59.574Z,50.201416
2023-05-28T08:04:08.311Z,48.413086
2023-05-28T08:05:16.923Z,48.114014
2023-05-28T08:06:25.577Z,49.108887
2023-05-28T08:07:33.231Z,49.310303
2023-05-28T08:08:40.959Z,48.31543
2023-05-28T08:09:50.621Z,47.125244
2023-05-28T08:11:00.298Z,47.644043
2023-05-28T08:12:09.964Z,48.31543
2023-05-28T08:13:19.630Z,48.339844
2023-05-28T08:14:29.321Z,48.4375
2023-05-28T08:15:39.009Z,47.839355
2023-05-28T08:16:46.676Z,48.217773
2023-05-28T08:17:55.352Z,48.114014
2023-05-28T08:19:04.937Z,47.619629
2023-05-28T08:20:14.662Z,47.296143
2023-05-28T08:21:23.398Z,48.791504
2023-05-28T08:22:31.964Z,46.704102
2023-05-28T08:23:40.595Z,47.772217
2023-05-28T08:24:50.224Z,46.307373
2023-05-28T08:25:59.928Z,46.582031
2023-05-28T08:27:08.570Z,46.954346
2023-05-28T08:28:18.252Z,45.166016
2023-05-28T08:29:27.119Z,45.446777
2023-05-28T08:30:35.975Z,46.020508
2023-05-28T08:31:45.665Z,46.313477
2023-05-28T08:32:55.317Z,45.721436
2023-05-28T08:34:04.994Z,45.916748
2023-05-28T08:35:14.685Z,45.123291
2023-05-28T08:36:24.384Z,46.136475
2023-05-28T08:37:34.072Z,45.446777
2023-05-28T08:38:43.714Z,46.514893
2023-05-28T08:39:52.372Z,45.397949
2023-05-28T08:41:01.083Z,44.488525
2023-05-28T08:42:10.707Z,45.178223
2023-05-28T08:43:20.394Z,44.464111
2023-05-28T08:44:30.091Z,44.73877
2023-05-28T08:45:37.722Z,43.774414
2023-05-28T08:46:48.438Z,43.377686
2023-05-28T08:47:57.090Z,43.597412
2023-05-28T08:49:07.733Z,43.096924
2023-05-28T08:50:16.385Z,43.31665
2023-05-28T08:51:25.104Z,43.615723
2023-05-28T08:52:34.753Z,43.713379
2023-05-28T08:53:43.446Z,45.477295
2023-05-28T08:54:53.102Z,42.901611
2023-05-28T08:56:01.764Z,42.486572
2023-05-28T08:57:09.415Z,43.792725
2023-05-28T08:58:19.075Z,45.355225
2023-05-28T08:59:28.782Z,43.457031
2023-05-28T09:00:38.795Z,42.364502
2023-05-28T09:01:48.384Z,42.266846
2023-05-28T09:02:57.247Z,41.357422
2023-05-28T09:04:06.892Z,40.960693
2023-05-28T09:05:14.457Z,41.75415
2023-05-28T09:06:22.227Z,40.783691
2023-05-28T09:07:31.897Z,41.455078
2023-05-28T09:08:41.674Z,42.248535
2023-05-28T09:09:51.315Z,41.75415
2023-05-28T09:10:59.972Z,41.357422
2023-05-28T09:12:09.654Z,41.436768
2023-05-28T09:13:18.311Z,42.028809
2023-05-28T09:14:27.014Z,40.863037
2023-05-28T09:15:35.660Z,40.563965
2023-05-28T09:16:45.482Z,40.582275
2023-05-28T09:17:55.014Z,41.278076
2023-05-28T09:19:04.634Z,41.18042
2023-05-28T09:20:12.363Z,42.584229
2023-05-28T09:21:21.014Z,40.582275
2023-05-28T09:22:30.679Z,40.106201
2023-05-28T09:23:38.333Z,40.899658
2023-05-28T09:24:47.028Z,40.600586
2023-05-28T09:25:56.682Z,41.772461
2023-05-28T09:27:06.334Z,41.455078
2023-05-28T09:28:14.989Z,40.466309
2023-05-28T09:29:25.288Z,40.563965
2023-05-28T09:30:33.958Z,40.643311
2023-05-28T09:31:43.721Z,40.820312
2023-05-28T09:32:51.416Z,40.802002
2023-05-28T09:33:59.097Z,38.531494
2023-05-28T09:35:08.757Z,38.348389
2023-05-28T09:36:17.517Z,38.568115
2023-05-28T09:37:26.161Z,38.861084
2023-05-28T09:38:35.892Z,39.434814
2023-05-28T09:39:44.572Z,38.94043
2023-05-28T09:40:54.275Z,40.130615
2023-05-28T09:42:02.917Z,38.94043
2023-05-28T09:43:11.608Z,38.549805
2023-05-28T09:44:21.254Z,39.733887
2023-05-28T09:45:29.914Z,40.527344
2023-05-28T09:46:38.590Z,40.527344
2023-05-28T09:47:47.229Z,41.101074
2023-05-28T09:48:56.918Z,40.405273
2023-05-28T09:50:06.772Z,41.693115
2023-05-28T09:51:15.920Z,40.997314
2023-05-28T09:52:24.189Z,39.794922
2023-05-28T09:53:34.428Z,39.001465
2023-05-28T09:54:43.091Z,39.282227
2023-05-28T09:55:51.914Z,39.282227
2023-05-28T09:57:00.577Z,39.0625
2023-05-28T09:58:09.298Z,39.758301
2023-05-28T09:59:18.970Z,40.032959
2023-05-28T10:00:27.769Z,40.325928
2023-05-28T10:01:36.444Z,38.830566
2023-05-28T10:02:46.159Z,39.025879
2023-05-28T10:03:53.856Z,38.555908
2023-05-28T10:05:03.482Z,37.762451
2023-05-28T10:06:13.172Z,37.744141
2023-05-28T10:07:21.963Z,37.945557
2023-05-28T10:08:31.589Z,37.469482
2023-05-28T10:09:39.267Z,38.354492
2023-05-28T10:10:47.976Z,37.408447
2023-05-28T10:11:57.622Z,38.000488
2023-05-28T10:13:05.327Z,36.895752
2023-05-28T10:14:14.048Z,37.109375
2023-05-28T10:15:22.862Z,36.834717
2023-05-28T10:16:32.531Z,37.127686
2023-05-28T10:17:42.176Z,37.408447
2023-05-28T10:18:50.831Z,38.574219
2023-05-28T10:19:59.504Z,37.567139
2023-05-28T10:21:10.231Z,38.043213
2023-05-28T10:22:18.861Z,38.830566
2023-05-28T10:23:28.537Z,36.364746
2023-05-28T10:24:37.177Z,35.36377
2023-05-28T10:25:46.288Z,35.559082
2023-05-28T10:26:55.961Z,36.053467
2023-05-28T10:28:04.616Z,36.645508
2023-05-28T10:29:12.277Z,36.071777
2023-05-28T10:30:21.948Z,36.938477
2023-05-28T10:31:30.609Z,36.346436
2023-05-28T10:32:39.316Z,36.248779
2023-05-28T10:33:49.030Z,35.955811
2023-05-28T10:34:58.622Z,35.577393
2023-05-28T10:36:08.329Z,37.036133
2023-05-28T10:37:16.012Z,35.760498
2023-05-28T10:38:23.766Z,35.742188
2023-05-28T10:39:33.440Z,36.920166
2023-05-28T10:40:42.119Z,37.036133
2023-05-28T10:41:50.854Z,38.024902
2023-05-28T10:42:59.527Z,37.237549
2023-05-28T10:44:08.226Z,36.645508
2023-05-28T10:45:17.871Z,36.938477
2023-05-28T10:46:24.630Z,39.007568
2023-05-28T10:47:34.216Z,37.8479
2023-05-28T10:48:42.928Z,38.140869
2023-05-28T10:49:51.030Z,38.452148
2023-05-28T10:51:00.208Z,38.336182
2023-05-28T10:52:08.852Z,37.548828
2023-05-28T10:53:18.532Z,38.140869
2023-05-28T10:54:28.186Z,36.859131
2023-05-28T10:55:37.890Z,37.432861
2023-05-28T10:56:47.555Z,36.84082
2023-05-28T10:57:54.205Z,37.432861
2023-05-28T10:59:01.998Z,37.70752
2023-05-28T11:00:11.719Z,37.39624
2023-05-28T11:01:20.409Z,36.102295
2023-05-28T11:02:30.187Z,36.315918
2023-05-28T11:03:38.898Z,36.230469
2023-05-28T11:04:48.431Z,35.839844
2023-05-28T11:05:58.084Z,35.229492
2023-05-28T11:07:06.751Z,35.742188
2023-05-28T11:08:15.479Z,36.016846
2023-05-28T11:09:25.154Z,36.297607
2023-05-28T11:10:33.773Z,36.590576
2023-05-28T11:11:43.561Z,36.279297
2023-05-28T11:12:53.218Z,34.216309
2023-05-28T11:14:02.895Z,34.997559
2023-05-28T11:15:12.542Z,35.473633
2023-05-28T11:16:20.310Z,35.473633
2023-05-28T11:17:28.931Z,34.197998
2023-05-28T11:18:38.571Z,35.198975
2023-05-28T11:19:47.267Z,35.784912
2023-05-28T11:20:55.985Z,35.5896
2023-05-28T11:22:05.615Z,35.296631
2023-05-28T11:23:14.296Z,34.997559
2023-05-28T11:24:24.959Z,34.625244
2023-05-28T11:25:33.633Z,35.211182
2023-05-28T11:26:43.301Z,36.49292
2023-05-28T11:27:52.074Z,34.625244
2023-05-28T11:29:00.672Z,35.803223
2023-05-28T11:30:10.412Z,35.882568
2023-05-28T11:31:20.105Z,34.997559
2023-05-28T11:32:29.767Z,33.80127
2023-05-28T11:33:39.544Z,34.771729
2023-05-28T11:34:48.265Z,34.362793
2023-05-28T11:35:56.945Z,33.850098
2023-05-28T11:37:06.601Z,34.832764
2023-05-28T11:38:15.245Z,33.312988
2023-05-28T11:39:23.950Z,34.472656
2023-05-28T11:40:32.628Z,34.051514
2023-05-28T11:41:42.314Z,34.442139
2023-05-28T11:42:51.017Z,34.814453
2023-05-28T11:44:00.668Z,33.935547
2023-05-28T11:45:09.386Z,32.952881
2023-05-28T11:46:19.058Z,33.441162
2023-05-28T11:47:27.792Z,34.014893
2023-05-28T11:48:36.408Z,34.295654
2023-05-28T11:49:45.163Z,34.130859
2023-05-28T11:50:54.923Z,35.046387
2023-05-28T11:52:04.489Z,34.832764
2023-05-28T11:53:13.239Z,33.184814
2023-05-28T11:54:20.921Z,34.344482
2023-05-28T11:55:30.572Z,34.716797
2023-05-28T11:56:39.247Z,34.997559
2023-05-28T11:57:48.938Z,35.876465
2023-05-28T11:58:58.593Z,33.740234
2023-05-28T12:00:07.245Z,35.50415
2023-05-28T12:01:16.970Z,35.028076
2023-05-28T12:02:25.641Z,34.619141
2023-05-28T12:03:33.315Z,35.388184
2023-05-28T12:04:42.913Z,35.095215
2023-05-28T12:05:51.636Z,34.393311
2023-05-28T12:07:01.452Z,35.308838
2023-05-28T12:08:11.018Z,34.802246
2023-05-28T12:09:19.654Z,34.490967
2023-05-28T12:10:29.305Z,34.606934
2023-05-28T12:11:38.020Z,34.210205
2023-05-28T12:12:46.729Z,33.654785
2023-05-28T12:13:56.473Z,35.241699
2023-05-28T12:15:06.122Z,34.344482
2023-05-28T12:16:14.770Z,34.063721
2023-05-28T12:17:23.694Z,34.362793
2023-05-28T12:18:32.328Z,34.130859
2023-05-28T12:19:41.990Z,32.4646
2023-05-28T12:20:50.677Z,33.752441
2023-05-28T12:21:59.419Z,34.051514
2023-05-28T12:23:09.136Z,33.654785
2023-05-28T12:24:18.734Z,33.343506
2023-05-28T12:25:27.429Z,34.686279
2023-05-28T12:26:37.120Z,33.703613
2023-05-28T12:27:46.763Z,33.575439
2023-05-28T12:28:56.465Z,33.166504
2023-05-28T12:30:04.136Z,33.544922
2023-05-28T12:31:12.837Z,32.940674
2023-05-28T12:32:23.525Z,33.233643
2023-05-28T12:33:33.157Z,32.4646
2023-05-28T12:34:41.823Z,33.557129
2023-05-28T12:35:50.574Z,32.562256
2023-05-28T12:36:59.220Z,33.691406
2023-05-28T12:38:08.884Z,33.312988
2023-05-28T12:39:16.549Z,33.148193
2023-05-28T12:40:24.209Z,34.130859
2023-05-28T12:41:33.924Z,32.531738
2023-05-28T12:42:42.572Z,32.220459
2023-05-28T12:43:52.232Z,32.025146
2023-05-28T12:45:00.877Z,32.299805
2023-05-28T12:46:12.061Z,33.770752
2023-05-28T12:47:19.228Z,33.197021
2023-05-28T12:48:28.956Z,32.598877
2023-05-28T12:49:37.674Z,32.775879
2023-05-28T12:50:47.324Z,32.006836
2023-05-28T12:51:55.017Z,32.006836
2023-05-28T12:53:04.848Z,30.944824
2023-05-28T12:54:14.506Z,31.225586
2023-05-28T12:55:24.171Z,31.439209
2023-05-28T12:56:32.828Z,31.506348
2023-05-28T12:57:41.478Z,31.207275
2023-05-28T12:58:51.155Z,30.426025
2023-05-28T12:59:59.812Z,30.81665
2023-05-28T13:01:07.512Z,31.225586
2023-05-28T13:02:16.249Z,31.781006
2023-05-28T13:03:25.122Z,32.043457
2023-05-28T13:04:33.722Z,30.480957
2023-05-28T13:05:42.587Z,30.200195
2023-05-28T13:06:51.258Z,30.218506
2023-05-28T13:08:00.914Z,30.578613
2023-05-28T13:09:09.611Z,30.773926
2023-05-28T13:10:17.286Z,29.89502